Time;durP1;ratioP1;P1;durP2;ratioP2;P2;SDS_P1;SDS_P2;PMS_P1;PMS_P2;Temp;Humidity;BMP_temperature;BMP_pressure;BME280_temperature;BME280_humidity;BME280_pressure;Samples;Min_cycle;Max_cycle;Signal;HPM_P1;HPM_P2
2022/08/10 00:01:28;;;;;;;5.78;2.45;;;19.80;82.90;;;;;;4954975;29;20042;-49
2022/08/10 00:03:54;;;;;;;4.75;2.63;;;19.80;83.00;;;;;;4956160;29;20023;-50
2022/08/10 00:06:20;;;;;;;4.80;2.90;;;19.70;83.30;;;;;;4956137;29;20470;-48
2022/08/10 00:08:45;;;;;;;4.10;2.67;;;19.60;83.50;;;;;;4954995;29;20023;-48
2022/08/10 00:11:11;;;;;;;3.60;2.70;;;19.60;84.40;;;;;;4954855;29;20062;-48
2022/08/10 00:13:37;;;;;;;4.60;2.70;;;19.50;84.90;;;;;;4956044;29;20026;-49
2022/08/10 00:16:03;;;;;;;3.85;2.70;;;19.50;84.90;;;;;;4956266;29;20027;-48
2022/08/10 00:18:29;;;;;;;4.10;2.80;;;19.50;84.70;;;;;;4955000;29;20119;-49
2022/08/10 00:20:55;;;;;;;4.57;2.65;;;19.40;84.80;;;;;;4955447;29;20062;-48
2022/08/10 00:23:20;;;;;;;4.82;2.58;;;19.30;85.50;;;;;;4955451;29;20038;-48
2022/08/10 00:25:46;;;;;;;5.53;2.85;;;19.20;85.90;;;;;;4955774;29;20039;-48
2022/08/10 00:28:11;;;;;;;5.38;2.97;;;19.10;86.50;;;;;;4956028;29;20083;-51
2022/08/10 00:30:37;;;;;;;5.75;2.80;;;19.00;87.00;;;;;;4954535;29;20050;-48
2022/08/10 00:33:03;;;;;;;4.30;2.50;;;19.00;88.80;;;;;;4955654;29;20023;-48
2022/08/10 00:35:29;;;;;;;6.90;2.75;;;19.00;88.40;;;;;;4955629;29;20024;-49
2022/08/10 00:37:55;;;;;;;6.28;2.88;;;19.10;88.30;;;;;;4954419;29;20031;-48
2022/08/10 00:40:21;;;;;;;9.85;3.00;;;19.00;88.80;;;;;;4970838;28;20027;-49
2022/08/10 00:42:46;;;;;;;6.55;2.95;;;19.00;88.90;;;;;;4955605;29;20023;-50
2022/08/10 00:45:12;;;;;;;3.45;2.42;;;19.00;89.50;;;;;;4955763;29;20031;-48
2022/08/10 00:47:38;;;;;;;4.25;2.40;;;19.00;89.80;;;;;;4955469;29;20058;-48
2022/08/10 00:50:06;;;;;;;8.70;2.90;;;19.00;89.60;;;;;;4970456;28;20035;-49
2022/08/10 00:52:33;;;;;;;3.65;2.92;;;18.90;89.90;;;;;;4956105;29;20062;-48
2022/08/10 00:55:01;;;;;;;4.55;2.55;;;18.90;90.40;;;;;;4955357;29;20023;-48
2022/08/10 00:57:27;;;;;;;4.03;2.85;;;18.80;90.60;;;;;;4955377;29;20031;-48
2022/08/10 00:59:53;;;;;;;7.00;2.95;;;18.70;90.90;;;;;;4955264;29;20038;-50
2022/08/10 01:02:18;;;;;;;6.60;2.85;;;18.60;91.20;;;;;;4955317;29;20102;-49
2022/08/10 01:04:44;;;;;;;5.80;2.85;;;18.50;91.30;;;;;;4955590;29;20028;-48
2022/08/10 01:07:48;;;;;;;6.25;3.28;;;18.50;91.50;;;;;;4955427;29;20034;-49
2022/08/10 01:10:27;;;;;;;4.22;3.03;;;18.50;91.80;;;;;;4955171;29;20031;-48
2022/08/10 01:13:02;;;;;;;5.15;2.70;;;18.40;92.20;;;;;;4954892;29;20031;-48
2022/08/10 01:15:28;;;;;;;4.40;2.90;;;18.40;92.40;;;;;;4954107;28;20024;-48
2022/08/10 01:18:08;;;;;;;6.38;2.90;;;18.40;92.40;;;;;;4954211;28;20118;-51
2022/08/10 01:20:39;;;;;;;6.65;3.30;;;18.30;92.30;;;;;;4955450;29;20027;-49
2022/08/10 01:23:16;;;;;;;6.10;3.20;;;18.30;92.70;;;;;;4955061;29;20042;-50
2022/08/10 01:26:01;;;;;;;4.25;2.80;;;18.30;93.10;;;;;;4953903;29;20027;-50
2022/08/10 01:28:54;;;;;;;4.57;3.05;;;18.20;93.80;;;;;;4953533;29;20032;-48
2022/08/10 01:31:25;;;;;;;5.13;2.92;;;18.20;94.00;;;;;;4953600;29;20023;-48
2022/08/10 01:34:01;;;;;;;5.15;3.33;;;18.20;94.70;;;;;;4953849;29;20486;-49
2022/08/10 01:36:33;;;;;;;9.25;3.22;;;18.20;95.00;;;;;;4954014;29;20023;-49
2022/08/10 01:39:01;;;;;;;5.90;3.03;;;18.10;95.50;;;;;;4955041;29;20019;-49
2022/08/10 01:41:35;;;;;;;5.00;2.63;;;18.10;96.10;;;;;;4955022;28;20043;-49
2022/08/10 01:44:09;;;;;;;7.30;3.28;;;18.20;96.00;;;;;;4969756;28;20082;-51
2022/08/10 01:46:37;;;;;;;4.63;3.00;;;18.20;96.40;;;;;;4954366;29;20026;-49
2022/08/10 01:49:08;;;;;;;9.27;2.70;;;18.10;96.80;;;;;;4953791;29;20083;-49
2022/08/10 01:51:49;;;;;;;3.10;2.80;;;18.10;97.10;;;;;;4953722;29;20039;-48
2022/08/10 01:54:19;;;;;;;5.15;3.47;;;18.00;97.60;;;;;;4953656;29;20023;-48
2022/08/10 01:56:48;;;;;;;3.30;2.75;;;18.00;97.80;;;;;;4954291;29;20067;-48
2022/08/10 01:59:33;;;;;;;7.28;3.15;;;18.00;98.50;;;;;;4954662;29;20490;-48
2022/08/10 02:02:03;;;;;;;4.00;3.00;;;18.00;98.70;;;;;;4953914;29;20122;-50
2022/08/10 02:04:31;;;;;;;8.07;3.25;;;17.90;99.20;;;;;;4954636;29;20487;-52
2022/08/10 02:07:00;;;;;;;3.25;2.75;;;17.90;99.50;;;;;;4953465;28;20034;-50
2022/08/10 02:09:30;;;;;;;4.43;3.28;;;17.80;99.90;;;;;;4954443;29;20019;-53
2022/08/10 02:12:00;;;;;;;5.80;3.17;;;17.80;99.90;;;;;;4954701;29;20023;-50
2022/08/10 02:14:33;;;;;;;4.63;3.35;;;17.70;99.90;;;;;;4953394;29;20023;-48
2022/08/10 02:17:02;;;;;;;4.85;3.08;;;17.70;99.90;;;;;;4955007;28;20122;-48
2022/08/10 02:19:31;;;;;;;7.57;3.05;;;17.60;99.90;;;;;;4957965;29;20027;-51
2022/08/10 02:22:00;;;;;;;5.97;3.22;;;17.60;99.90;;;;;;4956849;29;20046;-49
2022/08/10 02:24:27;;;;;;;5.53;3.17;;;17.50;99.90;;;;;;4956770;29;20031;-50
2022/08/10 02:26:54;;;;;;;4.72;3.05;;;17.50;99.90;;;;;;4972697;28;20034;-49
2022/08/10 02:29:20;;;;;;;8.90;3.38;;;17.50;99.90;;;;;;4956867;29;20019;-53
2022/08/10 02:31:46;;;;;;;4.15;2.70;;;17.50;99.90;;;;;;4956520;29;20118;-51
2022/08/10 02:34:14;;;;;;;3.15;2.42;;;17.40;99.90;;;;;;4956429;29;20505;-51
2022/08/10 02:37:02;;;;;;;5.57;3.42;;;17.60;99.90;;;;;;4956644;29;20047;-50
2022/08/10 02:39:29;;;;;;;4.25;3.03;;;17.60;99.90;;;;;;4956416;29;20102;-50
2022/08/10 02:42:04;;;;;;;5.75;3.22;;;17.50;99.90;;;;;;4956625;29;20500;-48
2022/08/10 02:45:07;;;;;;;3.55;2.75;;;17.50;99.90;;;;;;4956150;29;20032;-53
2022/08/10 02:47:49;;;;;;;8.50;3.10;;;17.40;99.90;;;;;;4956298;29;20031;-50
2022/08/10 02:50:42;;;;;;;5.72;2.90;;;17.30;99.90;;;;;;4957465;29;20066;-52
2022/08/10 02:53:22;;;;;;;4.25;3.20;;;17.30;99.90;;;;;;4958219;28;20122;-50
2022/08/10 02:56:09;;;;;;;5.33;2.50;;;17.20;99.90;;;;;;4957399;29;20037;-49
2022/08/10 02:58:46;;;;;;;7.97;2.88;;;17.30;99.90;;;;;;4957212;29;20256;-51
2022/08/10 03:01:18;;;;;;;5.18;2.83;;;17.30;99.90;;;;;;4956846;29;20434;-51
2022/08/10 03:03:57;;;;;;;6.45;3.33;;;17.40;99.90;;;;;;4956662;29;20037;-50
2022/08/10 03:06:38;;;;;;;8.18;3.97;;;17.30;99.90;;;;;;4957091;29;20062;-49
2022/08/10 03:09:07;;;;;;;4.82;3.55;;;17.30;99.90;;;;;;4956896;29;20023;-48
2022/08/10 03:11:34;;;;;;;8.23;3.90;;;17.10;99.90;;;;;;4957386;29;20027;-48
2022/08/10 03:14:01;;;;;;;5.70;3.83;;;17.10;99.90;;;;;;4955817;29;20032;-48
2022/08/10 03:16:29;;;;;;;6.82;2.92;;;16.90;99.90;;;;;;4957321;29;20102;-48
2022/08/10 03:18:58;;;;;;;7.53;3.50;;;17.00;99.90;;;;;;4955959;29;20387;-48
2022/08/10 03:21:26;;;;;;;4.22;3.47;;;17.10;99.90;;;;;;4971977;28;20091;-49
2022/08/10 03:23:53;;;;;;;4.65;2.92;;;17.20;99.90;;;;;;4956904;29;20031;-48
2022/08/10 03:26:19;;;;;;;5.35;2.92;;;17.30;99.90;;;;;;4955721;29;20031;-52
2022/08/10 03:28:45;;;;;;;8.15;2.92;;;17.50;99.90;;;;;;4954903;28;20054;-51
2022/08/10 03:31:11;;;;;;;5.28;3.10;;;17.70;99.90;;;;;;4955692;28;20053;-49
2022/08/10 03:33:42;;;;;;;5.20;3.00;;;17.60;99.90;;;;;;4955534;29;20024;-48
2022/08/10 03:36:08;;;;;;;3.35;2.95;;;17.60;99.90;;;;;;4955545;29;20025;-52
2022/08/10 03:38:34;;;;;;;5.30;3.20;;;17.60;99.90;;;;;;4956590;29;20031;-51
2022/08/10 03:41:07;;;;;;;4.32;3.13;;;17.50;99.90;;;;;;4955751;29;20027;-50
2022/08/10 03:43:33;;;;;;;4.78;2.90;;;17.50;99.90;;;;;;4956163;29;20027;-50
2022/08/10 03:46:04;;;;;;;5.32;3.03;;;17.40;99.90;;;;;;4956746;29;20517;-49
2022/08/10 03:48:32;;;;;;;4.78;3.13;;;17.30;99.90;;;;;;4956186;29;20431;-50
2022/08/10 03:51:00;;;;;;;4.28;3.13;;;17.20;99.90;;;;;;4956377;29;20067;-48
2022/08/10 03:53:26;;;;;;;10.57;5.78;;;17.10;99.90;;;;;;4955399;29;20024;-48
2022/08/10 03:55:52;;;;;;;5.57;3.63;;;16.90;99.90;;;;;;4956629;29;20046;-48
2022/08/10 03:58:17;;;;;;;5.72;3.30;;;16.90;99.90;;;;;;4955041;29;20051;-48
2022/08/10 04:00:45;;;;;;;5.07;3.08;;;16.80;99.90;;;;;;4956451;29;20034;-49
2022/08/10 04:03:11;;;;;;;7.85;3.40;;;16.60;99.90;;;;;;4955049;29;20027;-49
2022/08/10 04:05:37;;;;;;;9.88;4.00;;;16.70;99.90;;;;;;4955033;29;20027;-48
2022/08/10 04:08:04;;;;;;;6.25;3.60;;;16.70;99.90;;;;;;4954877;29;20035;-48
2022/08/10 04:10:30;;;;;;;6.68;3.80;;;16.70;99.90;;;;;;4955519;29;20027;-48
2022/08/10 04:12:55;;;;;;;5.28;3.33;;;16.70;99.90;;;;;;4954902;29;20561;-48
2022/08/10 04:15:23;;;;;;;4.70;3.10;;;16.70;99.90;;;;;;4956181;29;20065;-48
2022/08/10 04:17:49;;;;;;;7.53;3.55;;;16.60;99.90;;;;;;4955106;28;20082;-52
2022/08/10 04:20:18;;;;;;;7.35;3.63;;;16.60;99.90;;;;;;4955914;29;20153;-49
2022/08/10 04:22:47;;;;;;;5.05;3.80;;;16.50;99.90;;;;;;4954660;29;20051;-52
2022/08/10 04:25:14;;;;;;;5.95;3.30;;;16.50;99.90;;;;;;4954516;29;20027;-52
2022/08/10 04:27:41;;;;;;;5.95;3.20;;;16.60;99.90;;;;;;4954456;29;20075;-49
2022/08/10 04:30:07;;;;;;;5.47;3.35;;;16.60;99.90;;;;;;4954736;29;20023;-49
2022/08/10 04:32:34;;;;;;;4.45;3.20;;;16.70;99.90;;;;;;4954390;28;20055;-51
2022/08/10 04:35:03;;;;;;;7.18;3.17;;;17.00;99.90;;;;;;4954477;29;20099;-48
2022/08/10 04:37:30;;;;;;;5.95;3.50;;;17.20;99.90;;;;;;4954697;29;20038;-52
2022/08/10 04:39:56;;;;;;;5.70;3.55;;;17.30;99.90;;;;;;4955571;28;20051;-49
2022/08/10 04:42:21;;;;;;;7.22;4.25;;;17.60;99.90;;;;;;4954964;29;20027;-51
2022/08/10 04:44:49;;;;;;;7.32;3.35;;;17.80;99.90;;;;;;4955707;29;20393;-51
2022/08/10 04:47:15;;;;;;;8.70;3.97;;;17.90;99.90;;;;;;4955426;29;20031;-49
2022/08/10 04:49:40;;;;;;;4.65;3.13;;;18.10;99.90;;;;;;4954636;29;20019;-53
2022/08/10 04:52:06;;;;;;;4.95;3.50;;;18.50;99.90;;;;;;4955858;29;20035;-52
2022/08/10 04:54:32;;;;;;;8.88;4.32;;;18.90;99.90;;;;;;4954225;29;20122;-52
2022/08/10 04:56:57;;;;;;;4.50;2.55;;;19.30;99.90;;;;;;4955402;29;20074;-48
2022/08/10 04:59:24;;;;;;;8.15;3.65;;;19.70;99.90;;;;;;4955550;29;20047;-50
2022/08/10 05:01:49;;;;;;;8.73;3.28;;;20.10;99.90;;;;;;4954044;29;20027;-51
2022/08/10 05:04:16;;;;;;;4.18;2.92;;;20.40;99.90;;;;;;4954902;29;20034;-52
2022/08/10 05:06:42;;;;;;;6.40;3.10;;;20.60;99.90;;;;;;4955455;29;20422;-56
2022/08/10 05:09:07;;;;;;;8.75;4.65;;;21.00;99.90;;;;;;4954293;29;20078;-57
2022/08/10 05:11:33;;;;;;;6.45;3.00;;;21.10;99.90;;;;;;4954953;29;20035;-57
2022/08/10 05:13:59;;;;;;;6.30;3.13;;;21.30;99.90;;;;;;4954076;28;20066;-54
2022/08/10 05:16:24;;;;;;;6.63;4.40;;;21.30;99.90;;;;;;4953947;29;20030;-57
2022/08/10 05:18:50;;;;;;;4.75;4.07;;;21.40;99.90;;;;;;4955111;29;20051;-54
2022/08/10 05:21:16;;;;;;;5.47;4.00;;;21.50;99.90;;;;;;4955086;29;20038;-55
2022/08/10 05:23:41;;;;;;;10.88;3.40;;;21.70;99.90;;;;;;4969954;28;20059;-55
2022/08/10 05:26:07;;;;;;;5.32;3.30;;;22.10;99.90;;;;;;4955111;29;20035;-57
2022/08/10 05:28:32;;;;;;;6.32;3.63;;;22.60;98.90;;;;;;4953761;29;20494;-56
2022/08/10 05:30:58;;;;;;;7.13;3.35;;;22.90;98.30;;;;;;4955041;29;20062;-59
2022/08/10 05:33:24;;;;;;;4.03;3.22;;;23.30;97.30;;;;;;4954895;28;20023;-53
2022/08/10 05:35:50;;;;;;;6.50;3.60;;;23.70;96.70;;;;;;4954202;29;20034;-56
2022/08/10 05:38:16;;;;;;;6.53;3.55;;;24.20;95.40;;;;;;4954052;29;20058;-54
2022/08/10 05:40:43;;;;;;;5.15;3.70;;;24.50;95.20;;;;;;4953798;28;20035;-57
2022/08/10 05:43:09;;;;;;;5.72;3.67;;;24.90;94.50;;;;;;4953826;29;20190;-56
2022/08/10 05:45:35;;;;;;;4.32;3.58;;;25.30;93.50;;;;;;4953705;29;20054;-57
2022/08/10 05:48:01;;;;;;;4.30;2.70;;;25.60;92.70;;;;;;4954867;29;20110;-57
2022/08/10 05:50:29;;;;;;;4.90;3.47;;;26.00;91.80;;;;;;4969569;28;20118;-57
2022/08/10 05:52:56;;;;;;;3.70;2.70;;;26.50;91.10;;;;;;4956240;28;20031;-56
2022/08/10 05:55:23;;;;;;;5.25;3.33;;;27.00;91.10;;;;;;4957653;29;20386;-56
2022/08/10 05:57:49;;;;;;;6.78;3.50;;;27.00;88.60;;;;;;4958780;29;20031;-57
2022/08/10 06:00:19;;;;;;;4.03;3.08;;;27.40;86.10;;;;;;4957529;29;20027;-56
2022/08/10 06:02:48;;;;;;;3.95;2.58;;;27.90;83.40;;;;;;4958292;29;20024;-57
2022/08/10 06:05:26;;;;;;;4.93;2.60;;;28.10;84.00;;;;;;4957331;28;20407;-58
2022/08/10 06:08:00;;;;;;;6.57;2.70;;;28.60;80.40;;;;;;4957101;29;20102;-57
2022/08/10 06:10:28;;;;;;;3.47;2.47;;;28.60;78.90;;;;;;4958318;29;20033;-58
2022/08/10 06:15:42;;;;;;;4.22;2.80;;;29.30;75.70;;;;;;4958649;29;20083;-57
2022/08/10 06:18:08;;;;;;;6.53;3.13;;;29.30;74.90;;;;;;4958167;29;20037;-58
2022/08/10 06:20:35;;;;;;;4.50;3.50;;;29.90;74.30;;;;;;4956840;29;20033;-56
2022/08/10 06:23:03;;;;;;;11.10;3.08;;;30.10;73.10;;;;;;4958399;29;20086;-57
2022/08/10 06:25:32;;;;;;;4.85;3.53;;;30.40;70.90;;;;;;4958151;29;20031;-53
2022/08/10 06:27:59;;;;;;;6.70;2.90;;;30.80;69.50;;;;;;4957881;29;20494;-58
2022/08/10 06:30:26;;;;;;;3.03;2.47;;;31.00;70.50;;;;;;4958120;29;20035;-55
2022/08/10 06:32:55;;;;;;;6.65;3.47;;;31.80;67.50;;;;;;4972921;28;20122;-54
2022/08/10 06:35:24;;;;;;;4.50;2.15;;;32.20;65.70;;;;;;4956632;29;20023;-58
2022/08/10 06:37:50;;;;;;;4.20;2.50;;;32.10;64.70;;;;;;4956917;29;20398;-59
2022/08/10 06:40:16;;;;;;;10.40;2.72;;;32.50;65.40;;;;;;4956996;29;20062;-56
2022/08/10 06:42:48;;;;;;;4.53;2.97;;;32.80;61.90;;;;;;4957740;29;20050;-59
2022/08/10 06:45:26;;;;;;;3.33;2.40;;;33.20;62.30;;;;;;4957683;29;20398;-56
2022/08/10 06:47:58;;;;;;;5.75;3.03;;;33.80;60.30;;;;;;4957862;29;20023;-55
2022/08/10 06:51:02;;;;;;;4.55;3.10;;;32.90;60.90;;;;;;4956256;29;20038;-57
2022/08/10 06:53:32;;;;;;;6.13;2.88;;;33.50;61.00;;;;;;4961570;28;20039;-58
2022/08/10 06:56:03;;;;;;;7.25;2.88;;;33.10;60.20;;;;;;4973179;28;20344;-59
2022/08/10 06:58:33;;;;;;;;;;;33.40;59.20;;;;;;4957436;29;20027;-54
2022/08/10 07:01:01;;;;;;;8.70;2.50;;;33.70;58.30;;;;;;4956550;28;19929;-57
2022/08/10 07:03:33;;;;;;;6.47;2.60;;;33.80;59.50;;;;;;4957213;28;20043;-58
2022/08/10 07:06:02;;;;;;;6.43;2.22;;;34.00;57.90;;;;;;4957331;29;20035;-57
2022/08/10 07:08:31;;;;;;;6.60;2.50;;;34.70;57.80;;;;;;4957792;29;20131;-57
2022/08/10 07:10:58;;;;;;;3.80;2.63;;;35.00;57.70;;;;;;4957549;29;20407;-57
2022/08/10 07:13:24;;;;;;;7.40;3.47;;;33.70;56.70;;;;;;4957242;29;20105;-56
2022/08/10 07:15:50;;;;;;;8.00;2.60;;;34.40;56.30;;;;;;4957089;29;20035;-58
2022/08/10 07:18:18;;;;;;;4.28;2.70;;;35.00;56.30;;;;;;4957108;29;20023;-58
2022/08/10 07:20:45;;;;;;;9.90;2.45;;;35.70;55.30;;;;;;4957206;29;20475;-58
2022/08/10 07:23:12;;;;;;;3.30;2.63;;;35.90;55.30;;;;;;4955629;29;20118;-58
2022/08/10 07:25:40;;;;;;;11.60;2.90;;;36.50;55.00;;;;;;4956940;29;20030;-58
2022/08/10 07:28:07;;;;;;;4.38;3.00;;;37.60;52.60;;;;;;4955621;29;20024;-58
2022/08/10 07:30:37;;;;;;;10.35;3.03;;;38.00;51.30;;;;;;4956449;28;20027;-56
2022/08/10 07:33:04;;;;;;;4.53;2.72;;;37.60;50.80;;;;;;4957155;29;20102;-55
2022/08/10 07:35:31;;;;;;;8.15;3.08;;;37.60;51.80;;;;;;4955674;29;20062;-55
2022/08/10 07:38:01;;;;;;;6.40;3.20;;;38.60;51.40;;;;;;4971941;28;20126;-53
2022/08/10 07:40:28;;;;;;;10.18;2.95;;;39.00;49.70;;;;;;4955437;29;20031;-57
2022/08/10 07:42:58;;;;;;;5.28;3.13;;;38.60;50.90;;;;;;4956602;29;20038;-54
2022/08/10 07:45:27;;;;;;;;;;;39.00;49.40;;;;;;4956122;29;20027;-58
2022/08/10 07:48:03;;;;;;;7.68;2.53;;;38.90;49.20;;;;;;4956482;28;19910;-56
2022/08/10 07:50:29;;;;;;;11.02;3.47;;;39.70;48.10;;;;;;4955335;29;20487;-56
2022/08/10 07:53:00;;;;;;;14.52;3.20;;;39.40;48.70;;;;;;4955891;29;20027;-58
2022/08/10 07:55:27;;;;;;;5.65;2.50;;;40.00;47.50;;;;;;4955590;29;20050;-57
2022/08/10 07:57:55;;;;;;;6.78;2.58;;;40.50;47.40;;;;;;4956435;29;20034;-52
2022/08/10 08:00:22;;;;;;;8.82;2.97;;;40.50;46.80;;;;;;4956287;29;20483;-54
2022/08/10 08:02:54;;;;;;;5.55;2.80;;;41.00;46.60;;;;;;4955449;28;20031;-52
2022/08/10 08:05:22;;;;;;;3.80;2.72;;;41.70;45.50;;;;;;4956336;29;20027;-57
2022/08/10 08:07:49;;;;;;;10.68;3.90;;;42.10;45.00;;;;;;4956318;29;20095;-52
2022/08/10 08:10:16;;;;;;;6.75;3.08;;;42.00;44.90;;;;;;4955220;29;20027;-55
2022/08/10 08:12:43;;;;;;;7.35;2.72;;;42.50;44.20;;;;;;4955360;29;20030;-55
2022/08/10 08:15:11;;;;;;;6.88;2.47;;;43.20;43.80;;;;;;4954661;28;20023;-55
2022/08/10 08:17:38;;;;;;;5.10;2.92;;;43.30;44.60;;;;;;4955252;29;20031;-57
2022/08/10 08:20:05;;;;;;;9.40;2.90;;;43.70;44.10;;;;;;4955994;29;20020;-56
2022/08/10 08:22:31;;;;;;;5.22;2.83;;;44.10;42.40;;;;;;4954821;29;20034;-53
2022/08/10 08:24:58;;;;;;;6.85;3.13;;;44.20;41.90;;;;;;4954824;29;20028;-55
2022/08/10 08:27:26;;;;;;;13.05;3.20;;;44.20;41.40;;;;;;4954702;28;20034;-52
2022/08/10 08:29:52;;;;;;;6.20;2.88;;;44.10;41.70;;;;;;4954550;29;20386;-52
2022/08/10 08:32:23;;;;;;;7.53;2.97;;;44.10;41.40;;;;;;4955808;29;20031;-53
2022/08/10 08:34:55;;;;;;;6.63;3.00;;;44.20;41.40;;;;;;4954695;29;20083;-53
2022/08/10 08:37:24;;;;;;;6.65;3.05;;;44.20;40.70;;;;;;4955171;29;20031;-56
2022/08/10 08:39:50;;;;;;;13.63;3.05;;;43.70;40.50;;;;;;4954805;29;20031;-53
2022/08/10 08:42:33;;;;;;;4.97;3.00;;;42.90;42.20;;;;;;4970668;28;20174;-54
2022/08/10 08:45:27;;;;;;;6.43;2.88;;;44.00;41.10;;;;;;4955062;29;20055;-54
2022/08/10 08:48:18;;;;;;;8.60;3.00;;;44.20;40.20;;;;;;4955812;29;20386;-52
2022/08/10 08:51:23;;;;;;;9.98;3.15;;;44.40;40.10;;;;;;4955475;29;20023;-58
2022/08/10 08:54:01;;;;;;;9.10;2.67;;;45.00;40.20;;;;;;4961798;28;20558;-57
2022/08/10 08:56:43;;;;;;;7.47;3.05;;;44.10;39.50;;;;;;4954524;29;20415;-53
2022/08/10 08:59:46;;;;;;;4.82;2.80;;;44.20;39.20;;;;;;4956726;29;20039;-51
2022/08/10 09:02:43;;;;;;;5.65;2.65;;;43.70;40.30;;;;;;4954431;28;20394;-50
2022/08/10 09:05:43;;;;;;;4.78;2.90;;;43.90;39.80;;;;;;4954172;28;20074;-56
2022/08/10 09:08:10;;;;;;;10.77;3.47;;;44.70;39.60;;;;;;4955315;28;20077;-52
2022/08/10 09:10:44;;;;;;;8.10;2.78;;;45.50;39.80;;;;;;4954209;29;20023;-53
2022/08/10 09:13:25;;;;;;;8.00;2.92;;;45.60;38.30;;;;;;4954244;29;20054;-51
2022/08/10 09:16:02;;;;;;;7.75;3.13;;;46.20;38.50;;;;;;4955396;29;20020;-50
2022/08/10 09:18:49;;;;;;;7.63;2.30;;;44.40;37.70;;;;;;4953972;29;20035;-56
2022/08/10 09:21:22;;;;;;;4.95;2.80;;;42.10;41.10;;;;;;4954016;28;20398;-52
2022/08/10 09:24:18;;;;;;;6.05;2.47;;;42.90;39.10;;;;;;4955472;29;20069;-57
2022/08/10 09:26:51;;;;;;;6.82;2.70;;;44.10;38.90;;;;;;4956474;28;20514;-54
2022/08/10 09:29:29;;;;;;;9.55;2.72;;;45.10;38.30;;;;;;4959063;29;20083;-52
2022/08/10 09:32:12;;;;;;;8.05;2.45;;;45.50;37.30;;;;;;4958830;29;20028;-50
2022/08/10 09:35:00;;;;;;;4.05;2.95;;;46.10;36.90;;;;;;4957797;29;20027;-51
2022/08/10 09:37:41;;;;;;;9.00;2.63;;;46.20;36.60;;;;;;4959218;29;20089;-54
2022/08/10 09:40:36;;;;;;;6.75;2.42;;;46.40;35.60;;;;;;4974246;28;20027;-51
2022/08/10 09:43:18;;;;;;;3.53;2.33;;;46.20;36.70;;;;;;4961539;29;20035;-57
2022/08/10 09:45:56;;;;;;;8.30;2.95;;;45.80;35.80;;;;;;4958856;29;20031;-59
2022/08/10 09:48:53;;;;;;;8.23;3.03;;;42.40;37.20;;;;;;4958671;29;20474;-59
2022/08/10 09:51:26;;;;;;;7.72;2.40;;;41.20;39.30;;;;;;4958616;29;20398;-59
2022/08/10 09:53:57;;;;;;;2.35;2.13;;;41.90;38.40;;;;;;4958747;29;20020;-59
2022/08/10 09:56:35;;;;;;;3.78;2.10;;;41.70;37.30;;;;;;4957821;29;20482;-59
2022/08/10 09:59:29;;;;;;;5.72;2.47;;;41.00;36.70;;;;;;4958965;29;20039;-60
2022/08/10 10:02:16;;;;;;;4.22;2.03;;;39.60;37.40;;;;;;4958824;29;20031;-58
2022/08/10 10:04:58;;;;;;;3.90;2.08;;;39.30;38.10;;;;;;4957337;29;20028;-58
2022/08/10 10:07:28;;;;;;;3.92;1.77;;;40.60;37.30;;;;;;4973308;28;20031;-60
2022/08/10 10:10:15;;;;;;;3.33;1.73;;;40.00;38.30;;;;;;4958331;29;20023;-60
2022/08/10 10:12:47;;;;;;;5.35;2.30;;;41.10;37.30;;;;;;4958727;29;20107;-59
2022/08/10 10:15:37;;;;;;;3.42;1.98;;;39.50;36.90;;;;;;4958217;29;20027;-60
2022/08/10 10:18:21;;;;;;;3.25;1.85;;;39.50;39.20;;;;;;4958655;29;20074;-59
2022/08/10 10:21:14;;;;;;;7.15;2.17;;;39.30;37.30;;;;;;4957805;29;20484;-56
2022/08/10 10:24:12;;;;;;;3.60;2.35;;;39.20;39.20;;;;;;4973106;28;20101;-59
2022/08/10 10:26:51;;;;;;;3.30;1.98;;;38.30;38.60;;;;;;4958472;29;20027;-58
2022/08/10 10:29:52;;;;;;;2.83;2.00;;;36.80;40.00;;;;;;4958019;29;20091;-55
2022/08/10 10:32:27;;;;;;;2.28;1.98;;;37.20;39.80;;;;;;4958057;28;20031;-56
2022/08/10 10:34:52;;;;;;;3.88;1.85;;;36.70;39.60;;;;;;4957872;29;20038;-59
2022/08/10 10:37:20;;;;;;;4.63;1.73;;;35.50;40.80;;;;;;4957214;29;20024;-57
2022/08/10 10:39:52;;;;;;;4.72;2.22;;;34.40;42.10;;;;;;4956274;28;20023;-55
2022/08/10 10:42:42;;;;;;;5.75;2.30;;;34.10;42.50;;;;;;4957392;29;20378;-52
2022/08/10 10:45:18;;;;;;;2.83;1.73;;;33.80;42.30;;;;;;4956621;29;20023;-59
2022/08/10 10:48:15;;;;;;;6.35;2.20;;;32.70;43.40;;;;;;4956924;29;20395;-59
2022/08/10 10:51:20;;;;;;;3.60;1.85;;;31.90;44.20;;;;;;4956277;28;20549;-57
2022/08/10 10:53:55;;;;;;;3.50;1.70;;;31.40;44.80;;;;;;4957563;28;20039;-56
2022/08/10 10:56:53;;;;;;;5.82;1.70;;;31.20;45.30;;;;;;4956420;29;20023;-57
2022/08/10 10:59:42;;;;;;;2.35;1.83;;;31.20;45.30;;;;;;4957498;28;20098;-58
2022/08/10 11:02:57;;;;;;;2.35;1.75;;;30.90;45.40;;;;;;4957782;29;20070;-53
2022/08/10 11:05:46;;;;;;;4.10;1.58;;;30.70;45.50;;;;;;4970343;28;20103;-59
2022/08/10 11:08:22;;;;;;;5.38;1.98;;;30.40;45.60;;;;;;4957268;28;20046;-59
2022/08/10 11:10:55;;;;;;;2.25;1.80;;;30.40;45.80;;;;;;4956671;29;20110;-57
2022/08/10 11:13:37;;;;;;;6.38;2.00;;;30.30;46.30;;;;;;4957248;29;20102;-58
2022/08/10 11:16:05;;;;;;;12.45;2.08;;;30.20;46.00;;;;;;4957430;29;20020;-55
2022/08/10 11:18:33;;;;;;;1.83;1.48;;;30.00;45.30;;;;;;4971854;28;20035;-57
2022/08/10 11:21:20;;;;;;;2.03;1.85;;;29.40;46.30;;;;;;4956179;29;20027;-58
2022/08/10 11:23:53;;;;;;;3.63;1.48;;;29.40;46.00;;;;;;4957376;28;20034;-56
2022/08/10 11:26:27;;;;;;;3.97;1.85;;;29.30;46.00;;;;;;4956888;29;20034;-56
2022/08/10 11:29:17;;;;;;;4.38;2.15;;;29.40;46.50;;;;;;4956766;29;20089;-58
2022/08/10 11:31:48;;;;;;;4.40;2.47;;;29.40;46.20;;;;;;4955746;29;20019;-54
2022/08/10 11:34:29;;;;;;;1.92;1.70;;;29.70;46.70;;;;;;4955651;29;20024;-58
2022/08/10 11:37:33;;;;;;;3.97;1.60;;;29.80;45.30;;;;;;4956906;29;20054;-55
2022/08/10 11:40:08;;;;;;;4.68;1.80;;;29.60;45.80;;;;;;4957980;28;20493;-58
2022/08/10 11:42:45;;;;;;;2.70;1.40;;;29.50;45.70;;;;;;4959554;28;20042;-54
2022/08/10 11:45:16;;;;;;;1.73;1.55;;;29.40;45.60;;;;;;4955461;28;20031;-54
2022/08/10 11:47:55;;;;;;;1.70;1.60;;;29.60;46.60;;;;;;4956996;29;20023;-56
2022/08/10 11:50:23;;;;;;;3.97;1.60;;;29.70;45.50;;;;;;4955536;28;20042;-58
2022/08/10 11:52:48;;;;;;;2.00;1.40;;;29.80;46.00;;;;;;4955755;29;20028;-57
2022/08/10 11:55:23;;;;;;;2.35;1.88;;;29.70;46.60;;;;;;4955673;28;20034;-55
2022/08/10 11:57:54;;;;;;;2.65;1.83;;;29.90;46.40;;;;;;4956415;29;20067;-51
2022/08/10 12:00:19;;;;;;;3.47;1.90;;;29.40;45.40;;;;;;4955085;29;20031;-52
2022/08/10 12:02:53;;;;;;;4.70;1.90;;;29.30;45.90;;;;;;4956707;29;20031;-51
2022/08/10 12:05:26;;;;;;;1.90;1.60;;;29.40;46.10;;;;;;4956373;29;20043;-51
2022/08/10 12:07:54;;;;;;;7.18;1.83;;;29.50;46.10;;;;;;4956503;29;20038;-52
2022/08/10 12:10:22;;;;;;;6.30;1.83;;;29.30;44.90;;;;;;4956441;29;20027;-53
2022/08/10 12:13:26;;;;;;;4.43;1.95;;;29.10;46.40;;;;;;4971070;28;20110;-54
2022/08/10 12:16:01;;;;;;;5.57;2.25;;;29.20;46.30;;;;;;4954770;29;20028;-53
2022/08/10 12:18:45;;;;;;;3.13;1.60;;;29.00;46.10;;;;;;4956620;29;20046;-53
2022/08/10 12:21:29;;;;;;;2.53;1.67;;;29.00;46.60;;;;;;4956559;29;20031;-53
2022/08/10 12:24:16;;;;;;;3.75;1.92;;;29.00;46.70;;;;;;4956180;29;20031;-54
2022/08/10 12:26:53;;;;;;;3.72;1.55;;;29.10;47.00;;;;;;4954693;29;20478;-51
2022/08/10 12:29:29;;;;;;;4.50;1.92;;;29.30;46.20;;;;;;4955412;29;20034;-53
2022/08/10 12:32:12;;;;;;;4.25;1.55;;;29.30;45.50;;;;;;4955887;29;20026;-54
2022/08/10 12:34:48;;;;;;;4.22;1.90;;;29.40;45.70;;;;;;4954558;29;20078;-53
2022/08/10 12:37:31;;;;;;;1.95;1.70;;;29.30;45.70;;;;;;4954580;29;20019;-50
2022/08/10 12:40:14;;;;;;;3.97;1.70;;;29.20;45.70;;;;;;4955267;29;20074;-50
2022/08/10 12:43:22;;;;;;;11.15;2.70;;;29.00;45.80;;;;;;4956085;29;20030;-54
2022/08/10 12:46:10;;;;;;;2.63;2.08;;;29.00;46.40;;;;;;4961248;28;20039;-51
2022/08/10 12:48:49;;;;;;;1.60;1.50;;;29.00;45.70;;;;;;4954233;29;20031;-50
2022/08/10 12:51:29;;;;;;;3.90;2.33;;;29.00;45.00;;;;;;4954617;29;20071;-52
2022/08/10 12:54:09;;;;;;;1.60;1.47;;;29.10;45.60;;;;;;4954512;28;20418;-51
2022/08/10 12:56:42;;;;;;;3.67;1.90;;;29.00;45.60;;;;;;4955799;29;20263;-51
2022/08/10 12:59:13;;;;;;;3.50;1.88;;;29.20;44.60;;;;;;4955643;29;20027;-53
2022/08/10 13:01:39;;;;;;;;;;;29.10;44.80;;;;;;4970510;28;20054;-54
2022/08/10 13:04:14;;;;;;;7.90;1.98;;;29.20;45.50;;;;;;4954121;28;19961;-54
2022/08/10 13:06:45;;;;;;;4.63;1.60;;;29.30;45.30;;;;;;4955419;29;20023;-56
2022/08/10 13:09:14;;;;;;;7.47;1.80;;;29.20;45.30;;;;;;4955464;29;20035;-56
2022/08/10 13:11:48;;;;;;;4.97;2.03;;;29.20;45.50;;;;;;4955280;29;20574;-56
2022/08/10 13:14:27;;;;;;;2.10;1.80;;;28.90;44.90;;;;;;4955564;29;20075;-55
2022/08/10 13:16:56;;;;;;;4.35;1.70;;;29.00;45.50;;;;;;4954216;29;20450;-55
2022/08/10 13:19:25;;;;;;;2.88;1.90;;;29.00;45.40;;;;;;4954553;29;20035;-52
2022/08/10 13:21:52;;;;;;;3.65;1.70;;;29.00;45.40;;;;;;4955203;29;20127;-54